sensor_id;sensor_type;location;lat;lon;timestamp;temperature;humidity
3921;DHT22;1975;49.356;6.816;2023-04-03T00:01:53;7.90;99.90
3921;DHT22;1975;49.356;6.816;2023-04-03T00:04:18;7.90;99.90
3921;DHT22;1975;49.356;6.816;2023-04-03T00:06:44;7.90;99.90
3921;DHT22;1975;49.356;6.816;2023-04-03T00:09:10;7.80;99.90
3921;DHT22;1975;49.356;6.816;2023-04-03T00:11:35;7.80;99.90
3921;DHT22;1975;49.356;6.816;2023-04-03T00:14:01;7.80;99.90
3921;DHT22;1975;49.356;6.816;2023-04-03T00:16:26;7.80;99.90
3921;DHT22;1975;49.356;6.816;2023-04-03T00:18:51;7.80;99.90
3921;DHT22;1975;49.356;6.816;2023-04-03T00:21:17;7.70;99.90
3921;DHT22;1975;49.356;6.816;2023-04-03T00:23:42;7.80;99.90
3921;DHT22;1975;49.356;6.816;2023-04-03T00:26:08;7.70;99.90
3921;DHT22;1975;49.356;6.816;2023-04-03T00:28:33;7.70;99.90
3921;DHT22;1975;49.356;6.816;2023-04-03T00:30:59;7.70;99.90
3921;DHT22;1975;49.356;6.816;2023-04-03T00:33:24;7.70;99.90
3921;DHT22;1975;49.356;6.816;2023-04-03T00:35:50;7.70;99.90
3921;DHT22;1975;49.356;6.816;2023-04-03T00:38:15;7.70;99.90
3921;DHT22;1975;49.356;6.816;2023-04-03T00:40:42;7.70;99.90
3921;DHT22;1975;49.356;6.816;2023-04-03T00:43:12;7.70;99.90
3921;DHT22;1975;49.356;6.816;2023-04-03T00:45:40;7.70;99.90
3921;DHT22;1975;49.356;6.816;2023-04-03T00:48:07;7.70;99.90
3921;DHT22;1975;49.356;6.816;2023-04-03T00:50:34;7.70;99.90
3921;DHT22;1975;49.356;6.816;2023-04-03T00:53:00;7.70;99.90
3921;DHT22;1975;49.356;6.816;2023-04-03T00:55:26;7.70;99.90
3921;DHT22;1975;49.356;6.816;2023-04-03T00:57:52;7.70;99.90
3921;DHT22;1975;49.356;6.816;2023-04-03T01:00:19;7.60;99.90
3921;DHT22;1975;49.356;6.816;2023-04-03T01:02:44;7.60;99.90
3921;DHT22;1975;49.356;6.816;2023-04-03T01:05:10;7.60;99.90
3921;DHT22;1975;49.356;6.816;2023-04-03T01:07:36;7.60;99.90
3921;DHT22;1975;49.356;6.816;2023-04-03T01:10:05;7.60;99.90
3921;DHT22;1975;49.356;6.816;2023-04-03T01:12:32;7.60;99.90
3921;DHT22;1975;49.356;6.816;2023-04-03T01:15:00;7.60;99.90
3921;DHT22;1975;49.356;6.816;2023-04-03T01:17:30;7.60;99.90
3921;DHT22;1975;49.356;6.816;2023-04-03T01:23:27;7.50;99.90
3921;DHT22;1975;49.356;6.816;2023-04-03T01:25:26;7.50;99.90
3921;DHT22;1975;49.356;6.816;2023-04-03T01:27:52;7.50;99.90
3921;DHT22;1975;49.356;6.816;2023-04-03T01:30:18;7.50;99.90
3921;DHT22;1975;49.356;6.816;2023-04-03T01:32:44;7.50;99.90
3921;DHT22;1975;49.356;6.816;2023-04-03T01:35:09;7.50;99.90
3921;DHT22;1975;49.356;6.816;2023-04-03T01:37:35;7.50;99.90
3921;DHT22;1975;49.356;6.816;2023-04-03T01:40:01;7.50;99.90
3921;DHT22;1975;49.356;6.816;2023-04-03T01:42:26;7.40;99.90
3921;DHT22;1975;49.356;6.816;2023-04-03T01:44:51;7.40;99.90
3921;DHT22;1975;49.356;6.816;2023-04-03T01:47:17;7.50;99.90
3921;DHT22;1975;49.356;6.816;2023-04-03T01:49:42;7.50;99.90
3921;DHT22;1975;49.356;6.816;2023-04-03T01:52:08;7.50;99.90
3921;DHT22;1975;49.356;6.816;2023-04-03T01:54:33;7.50;99.90
3921;DHT22;1975;49.356;6.816;2023-04-03T01:56:59;7.50;99.90
3921;DHT22;1975;49.356;6.816;2023-04-03T01:59:24;7.50;99.90
3921;DHT22;1975;49.356;6.816;2023-04-03T02:01:50;7.50;99.90
3921;DHT22;1975;49.356;6.816;2023-04-03T02:04:15;7.50;99.90
3921;DHT22;1975;49.356;6.816;2023-04-03T02:06:41;7.50;99.90
3921;DHT22;1975;49.356;6.816;2023-04-03T02:09:06;7.50;99.90
3921;DHT22;1975;49.356;6.816;2023-04-03T02:11:32;7.50;99.90
3921;DHT22;1975;49.356;6.816;2023-04-03T02:13:57;7.50;99.90
3921;DHT22;1975;49.356;6.816;2023-04-03T02:16:23;7.50;99.90
3921;DHT22;1975;49.356;6.816;2023-04-03T02:18:48;7.50;99.90
3921;DHT22;1975;49.356;6.816;2023-04-03T02:21:14;7.50;99.90
3921;DHT22;1975;49.356;6.816;2023-04-03T02:23:39;7.50;99.90
3921;DHT22;1975;49.356;6.816;2023-04-03T02:26:09;7.50;99.90
3921;DHT22;1975;49.356;6.816;2023-04-03T02:28:35;7.50;99.90
3921;DHT22;1975;49.356;6.816;2023-04-03T02:31:01;7.50;99.90
3921;DHT22;1975;49.356;6.816;2023-04-03T02:33:27;7.50;99.90
3921;DHT22;1975;49.356;6.816;2023-04-03T02:35:53;7.50;99.90
3921;DHT22;1975;49.356;6.816;2023-04-03T02:38:19;7.50;99.90
3921;DHT22;1975;49.356;6.816;2023-04-03T02:40:44;7.50;99.90
3921;DHT22;1975;49.356;6.816;2023-04-03T02:43:10;7.40;99.90
3921;DHT22;1975;49.356;6.816;2023-04-03T02:45:35;7.40;99.90
3921;DHT22;1975;49.356;6.816;2023-04-03T02:48:01;7.40;99.90
3921;DHT22;1975;49.356;6.816;2023-04-03T02:50:26;7.50;99.90
3921;DHT22;1975;49.356;6.816;2023-04-03T02:52:52;7.50;99.90
3921;DHT22;1975;49.356;6.816;2023-04-03T02:55:17;7.50;99.90
3921;DHT22;1975;49.356;6.816;2023-04-03T02:57:43;7.40;99.90
3921;DHT22;1975;49.356;6.816;2023-04-03T03:00:08;7.50;99.90
3921;DHT22;1975;49.356;6.816;2023-04-03T03:02:35;7.40;99.90
3921;DHT22;1975;49.356;6.816;2023-04-03T03:05:00;7.40;99.90
3921;DHT22;1975;49.356;6.816;2023-04-03T03:07:26;7.40;99.90
3921;DHT22;1975;49.356;6.816;2023-04-03T03:09:51;7.40;99.90
3921;DHT22;1975;49.356;6.816;2023-04-03T03:12:16;7.30;99.90
3921;DHT22;1975;49.356;6.816;2023-04-03T03:14:47;7.40;99.90
3921;DHT22;1975;49.356;6.816;2023-04-03T03:17:13;7.30;99.90
3921;DHT22;1975;49.356;6.816;2023-04-03T03:19:38;7.30;99.90
3921;DHT22;1975;49.356;6.816;2023-04-03T03:22:03;7.30;99.90
3921;DHT22;1975;49.356;6.816;2023-04-03T03:24:29;7.30;99.90
3921;DHT22;1975;49.356;6.816;2023-04-03T03:26:55;7.30;99.90
3921;DHT22;1975;49.356;6.816;2023-04-03T03:29:20;7.30;99.90
3921;DHT22;1975;49.356;6.816;2023-04-03T03:31:46;7.30;99.90
3921;DHT22;1975;49.356;6.816;2023-04-03T03:34:11;7.30;99.90
3921;DHT22;1975;49.356;6.816;2023-04-03T03:36:37;7.30;99.90
3921;DHT22;1975;49.356;6.816;2023-04-03T03:39:02;7.30;99.90
3921;DHT22;1975;49.356;6.816;2023-04-03T03:41:28;7.30;99.90
3921;DHT22;1975;49.356;6.816;2023-04-03T03:43:53;7.20;99.90
3921;DHT22;1975;49.356;6.816;2023-04-03T03:46:19;7.20;99.90
3921;DHT22;1975;49.356;6.816;2023-04-03T03:48:44;7.30;99.90
3921;DHT22;1975;49.356;6.816;2023-04-03T03:51:10;7.20;99.90
3921;DHT22;1975;49.356;6.816;2023-04-03T03:53:35;7.20;99.90
3921;DHT22;1975;49.356;6.816;2023-04-03T03:56:01;7.20;99.90
3921;DHT22;1975;49.356;6.816;2023-04-03T03:58:26;7.20;99.90
3921;DHT22;1975;49.356;6.816;2023-04-03T04:00:52;7.20;99.90
3921;DHT22;1975;49.356;6.816;2023-04-03T04:03:17;7.20;99.90
3921;DHT22;1975;49.356;6.816;2023-04-03T04:05:43;7.10;99.90
3921;DHT22;1975;49.356;6.816;2023-04-03T04:08:08;7.10;99.90
3921;DHT22;1975;49.356;6.816;2023-04-03T04:10:34;7.10;99.90
3921;DHT22;1975;49.356;6.816;2023-04-03T04:13:00;7.10;99.90
3921;DHT22;1975;49.356;6.816;2023-04-03T04:15:25;7.10;99.90
3921;DHT22;1975;49.356;6.816;2023-04-03T04:17:52;7.10;99.90
3921;DHT22;1975;49.356;6.816;2023-04-03T04:20:18;7.10;99.90
3921;DHT22;1975;49.356;6.816;2023-04-03T04:22:43;7.10;99.90
3921;DHT22;1975;49.356;6.816;2023-04-03T04:25:09;7.10;99.90
3921;DHT22;1975;49.356;6.816;2023-04-03T04:27:35;7.00;99.90
3921;DHT22;1975;49.356;6.816;2023-04-03T04:30:00;7.00;99.90
3921;DHT22;1975;49.356;6.816;2023-04-03T04:32:26;7.00;99.90
3921;DHT22;1975;49.356;6.816;2023-04-03T04:34:51;7.00;99.90
3921;DHT22;1975;49.356;6.816;2023-04-03T04:37:17;7.00;99.90
3921;DHT22;1975;49.356;6.816;2023-04-03T04:39:42;7.00;99.90
3921;DHT22;1975;49.356;6.816;2023-04-03T04:42:08;7.00;99.90
3921;DHT22;1975;49.356;6.816;2023-04-03T04:44:38;7.00;99.90
3921;DHT22;1975;49.356;6.816;2023-04-03T04:47:04;6.90;99.90
3921;DHT22;1975;49.356;6.816;2023-04-03T04:49:29;6.90;99.90
3921;DHT22;1975;49.356;6.816;2023-04-03T04:51:55;6.90;99.90
3921;DHT22;1975;49.356;6.816;2023-04-03T04:54:20;6.90;99.90
3921;DHT22;1975;49.356;6.816;2023-04-03T04:56:46;6.90;99.90
3921;DHT22;1975;49.356;6.816;2023-04-03T04:59:11;6.80;99.90
3921;DHT22;1975;49.356;6.816;2023-04-03T05:01:37;6.80;99.90
3921;DHT22;1975;49.356;6.816;2023-04-03T05:04:02;6.80;99.90
3921;DHT22;1975;49.356;6.816;2023-04-03T05:06:28;6.80;99.90
3921;DHT22;1975;49.356;6.816;2023-04-03T05:08:55;6.80;99.90
3921;DHT22;1975;49.356;6.816;2023-04-03T05:11:21;6.80;99.90
3921;DHT22;1975;49.356;6.816;2023-04-03T05:13:46;6.80;99.90
3921;DHT22;1975;49.356;6.816;2023-04-03T05:16:12;6.80;99.90
3921;DHT22;1975;49.356;6.816;2023-04-03T05:18:37;6.80;99.90
3921;DHT22;1975;49.356;6.816;2023-04-03T05:21:03;6.80;99.90
3921;DHT22;1975;49.356;6.816;2023-04-03T05:23:28;6.80;99.90
3921;DHT22;1975;49.356;6.816;2023-04-03T05:25:54;6.80;99.90
3921;DHT22;1975;49.356;6.816;2023-04-03T05:28:19;6.70;99.90
3921;DHT22;1975;49.356;6.816;2023-04-03T05:30:45;6.80;99.90
3921;DHT22;1975;49.356;6.816;2023-04-03T05:33:10;6.70;99.90
3921;DHT22;1975;49.356;6.816;2023-04-03T05:35:36;6.70;99.90
3921;DHT22;1975;49.356;6.816;2023-04-03T05:38:05;6.70;99.90
3921;DHT22;1975;49.356;6.816;2023-04-03T05:40:31;6.70;99.90
3921;DHT22;1975;49.356;6.816;2023-04-03T05:42:56;6.70;99.90
3921;DHT22;1975;49.356;6.816;2023-04-03T05:45:22;6.70;99.90
3921;DHT22;1975;49.356;6.816;2023-04-03T05:47:47;6.70;99.90
3921;DHT22;1975;49.356;6.816;2023-04-03T05:50:13;6.70;99.90
3921;DHT22;1975;49.356;6.816;2023-04-03T05:52:40;6.70;99.90
3921;DHT22;1975;49.356;6.816;2023-04-03T05:55:07;6.70;99.90
3921;DHT22;1975;49.356;6.816;2023-04-03T05:57:33;6.70;99.90
3921;DHT22;1975;49.356;6.816;2023-04-03T05:59:58;6.70;99.90
3921;DHT22;1975;49.356;6.816;2023-04-03T06:02:24;6.70;99.90
3921;DHT22;1975;49.356;6.816;2023-04-03T06:04:50;6.70;99.90
3921;DHT22;1975;49.356;6.816;2023-04-03T06:07:17;6.70;99.90
3921;DHT22;1975;49.356;6.816;2023-04-03T06:09:44;6.70;99.90
3921;DHT22;1975;49.356;6.816;2023-04-03T06:12:10;6.70;99.90
3921;DHT22;1975;49.356;6.816;2023-04-03T06:14:36;6.70;99.90
3921;DHT22;1975;49.356;6.816;2023-04-03T06:17:01;6.80;99.90
3921;DHT22;1975;49.356;6.816;2023-04-03T06:19:27;6.80;99.90
3921;DHT22;1975;49.356;6.816;2023-04-03T06:21:53;6.80;99.90
3921;DHT22;1975;49.356;6.816;2023-04-03T06:24:18;6.80;99.90
3921;DHT22;1975;49.356;6.816;2023-04-03T06:26:45;6.80;99.90
3921;DHT22;1975;49.356;6.816;2023-04-03T06:29:10;6.80;99.90
3921;DHT22;1975;49.356;6.816;2023-04-03T06:31:36;6.80;99.90
3921;DHT22;1975;49.356;6.816;2023-04-03T06:34:02;6.80;99.90
3921;DHT22;1975;49.356;6.816;2023-04-03T06:36:28;6.80;99.90
3921;DHT22;1975;49.356;6.816;2023-04-03T06:38:54;6.80;99.90
3921;DHT22;1975;49.356;6.816;2023-04-03T06:41:19;6.80;99.90
3921;DHT22;1975;49.356;6.816;2023-04-03T06:43:45;6.80;99.90
3921;DHT22;1975;49.356;6.816;2023-04-03T06:46:12;6.80;99.90
3921;DHT22;1975;49.356;6.816;2023-04-03T06:48:38;6.80;99.90
3921;DHT22;1975;49.356;6.816;2023-04-03T06:51:03;6.80;99.90
3921;DHT22;1975;49.356;6.816;2023-04-03T06:53:29;6.80;99.90
3921;DHT22;1975;49.356;6.816;2023-04-03T06:55:54;6.80;99.90
3921;DHT22;1975;49.356;6.816;2023-04-03T06:58:20;6.80;99.90
3921;DHT22;1975;49.356;6.816;2023-04-03T07:00:47;6.80;99.90
3921;DHT22;1975;49.356;6.816;2023-04-03T07:03:12;6.80;99.90
3921;DHT22;1975;49.356;6.816;2023-04-03T07:05:38;6.80;99.90
3921;DHT22;1975;49.356;6.816;2023-04-03T07:08:03;6.80;99.90
3921;DHT22;1975;49.356;6.816;2023-04-03T07:10:29;6.80;99.90
3921;DHT22;1975;49.356;6.816;2023-04-03T07:12:54;6.80;99.90
3921;DHT22;1975;49.356;6.816;2023-04-03T07:15:20;6.80;99.90
3921;DHT22;1975;49.356;6.816;2023-04-03T07:17:45;6.80;99.90
3921;DHT22;1975;49.356;6.816;2023-04-03T07:20:11;6.80;99.90
3921;DHT22;1975;49.356;6.816;2023-04-03T07:22:37;6.80;99.90
3921;DHT22;1975;49.356;6.816;2023-04-03T07:25:02;6.80;99.90
3921;DHT22;1975;49.356;6.816;2023-04-03T07:27:28;6.80;99.90
3921;DHT22;1975;49.356;6.816;2023-04-03T07:29:54;6.80;99.90
3921;DHT22;1975;49.356;6.816;2023-04-03T07:32:21;6.70;99.90
3921;DHT22;1975;49.356;6.816;2023-04-03T07:34:46;6.70;99.90
3921;DHT22;1975;49.356;6.816;2023-04-03T07:37:12;6.80;99.90
3921;DHT22;1975;49.356;6.816;2023-04-03T07:39:38;6.70;99.90
3921;DHT22;1975;49.356;6.816;2023-04-03T07:42:03;6.80;99.90
3921;DHT22;1975;49.356;6.816;2023-04-03T07:44:28;6.80;99.90
3921;DHT22;1975;49.356;6.816;2023-04-03T07:46:54;6.80;99.90
3921;DHT22;1975;49.356;6.816;2023-04-03T07:49:22;6.80;99.90
3921;DHT22;1975;49.356;6.816;2023-04-03T07:51:51;6.80;99.90
3921;DHT22;1975;49.356;6.816;2023-04-03T07:54:18;6.80;99.90
3921;DHT22;1975;49.356;6.816;2023-04-03T07:56:43;6.80;99.90
3921;DHT22;1975;49.356;6.816;2023-04-03T07:59:09;6.80;99.90
3921;DHT22;1975;49.356;6.816;2023-04-03T08:01:35;6.80;99.90
3921;DHT22;1975;49.356;6.816;2023-04-03T08:04:01;6.80;99.90
3921;DHT22;1975;49.356;6.816;2023-04-03T08:06:26;6.80;99.90
3921;DHT22;1975;49.356;6.816;2023-04-03T08:08:54;6.80;99.90
3921;DHT22;1975;49.356;6.816;2023-04-03T08:11:19;6.80;99.90
3921;DHT22;1975;49.356;6.816;2023-04-03T08:13:46;6.90;99.90
3921;DHT22;1975;49.356;6.816;2023-04-03T08:16:12;6.70;99.90
3921;DHT22;1975;49.356;6.816;2023-04-03T08:18:38;6.50;99.90
3921;DHT22;1975;49.356;6.816;2023-04-03T08:21:10;6.70;99.90
3921;DHT22;1975;49.356;6.816;2023-04-03T08:23:37;6.90;99.90
3921;DHT22;1975;49.356;6.816;2023-04-03T08:26:10;6.90;99.90
3921;DHT22;1975;49.356;6.816;2023-04-03T08:28:36;6.70;99.90
3921;DHT22;1975;49.356;6.816;2023-04-03T08:31:05;7.00;99.90
3921;DHT22;1975;49.356;6.816;2023-04-03T08:33:31;7.00;99.90
3921;DHT22;1975;49.356;6.816;2023-04-03T08:35:57;6.80;99.90
3921;DHT22;1975;49.356;6.816;2023-04-03T08:38:22;6.80;99.90
3921;DHT22;1975;49.356;6.816;2023-04-03T08:40:48;7.10;99.90
3921;DHT22;1975;49.356;6.816;2023-04-03T08:43:36;7.00;99.90
3921;DHT22;1975;49.356;6.816;2023-04-03T08:46:05;6.90;99.90
3921;DHT22;1975;49.356;6.816;2023-04-03T08:48:33;6.90;99.90
3921;DHT22;1975;49.356;6.816;2023-04-03T08:51:00;6.80;99.90
3921;DHT22;1975;49.356;6.816;2023-04-03T08:53:26;6.60;99.90
3921;DHT22;1975;49.356;6.816;2023-04-03T08:55:53;6.40;99.90
3921;DHT22;1975;49.356;6.816;2023-04-03T09:00:50;6.10;99.90
3921;DHT22;1975;49.356;6.816;2023-04-03T09:03:17;6.20;99.90
3921;DHT22;1975;49.356;6.816;2023-04-03T09:10:46;6.20;99.90
3921;DHT22;1975;49.356;6.816;2023-04-03T09:13:30;6.20;99.90
3921;DHT22;1975;49.356;6.816;2023-04-03T09:15:58;6.40;99.90
3921;DHT22;1975;49.356;6.816;2023-04-03T09:18:30;6.20;99.90
3921;DHT22;1975;49.356;6.816;2023-04-03T09:21:01;6.40;99.90
3921;DHT22;1975;49.356;6.816;2023-04-03T09:23:45;6.30;99.90
3921;DHT22;1975;49.356;6.816;2023-04-03T09:26:25;6.50;99.90
3921;DHT22;1975;49.356;6.816;2023-04-03T09:28:54;6.40;99.90
3921;DHT22;1975;49.356;6.816;2023-04-03T09:31:25;6.50;99.90
3921;DHT22;1975;49.356;6.816;2023-04-03T09:33:52;6.40;99.90
3921;DHT22;1975;49.356;6.816;2023-04-03T09:37:04;6.30;99.90
3921;DHT22;1975;49.356;6.816;2023-04-03T09:39:07;6.40;99.90
3921;DHT22;1975;49.356;6.816;2023-04-03T09:41:34;6.60;99.90
3921;DHT22;1975;49.356;6.816;2023-04-03T09:44:00;6.60;99.90
3921;DHT22;1975;49.356;6.816;2023-04-03T09:46:30;6.60;99.90
3921;DHT22;1975;49.356;6.816;2023-04-03T09:48:58;6.60;99.90
3921;DHT22;1975;49.356;6.816;2023-04-03T09:51:29;6.60;99.90
3921;DHT22;1975;49.356;6.816;2023-04-03T09:53:55;6.50;99.90
3921;DHT22;1975;49.356;6.816;2023-04-03T09:56:23;6.80;99.90
3921;DHT22;1975;49.356;6.816;2023-04-03T09:59:13;6.80;99.90
3921;DHT22;1975;49.356;6.816;2023-04-03T10:06:35;6.70;99.90
3921;DHT22;1975;49.356;6.816;2023-04-03T10:09:06;6.70;99.90
3921;DHT22;1975;49.356;6.816;2023-04-03T10:11:39;6.60;99.90
3921;DHT22;1975;49.356;6.816;2023-04-03T10:14:23;6.60;99.90
3921;DHT22;1975;49.356;6.816;2023-04-03T10:17:37;6.80;99.90
3921;DHT22;1975;49.356;6.816;2023-04-03T10:19:45;6.80;99.90
3921;DHT22;1975;49.356;6.816;2023-04-03T10:24:59;7.00;99.90
3921;DHT22;1975;49.356;6.816;2023-04-03T10:27:31;7.10;99.90
3921;DHT22;1975;49.356;6.816;2023-04-03T10:30:00;7.00;99.90
3921;DHT22;1975;49.356;6.816;2023-04-03T10:37:54;7.10;99.90
3921;DHT22;1975;49.356;6.816;2023-04-03T10:40:34;7.20;99.90
3921;DHT22;1975;49.356;6.816;2023-04-03T10:45:46;7.70;99.90
3921;DHT22;1975;49.356;6.816;2023-04-03T10:53:31;7.50;99.90
3921;DHT22;1975;49.356;6.816;2023-04-03T10:56:21;7.50;99.90
3921;DHT22;1975;49.356;6.816;2023-04-03T10:58:54;7.50;99.90
3921;DHT22;1975;49.356;6.816;2023-04-03T11:01:24;7.80;99.90
3921;DHT22;1975;49.356;6.816;2023-04-03T11:03:55;7.80;99.90
3921;DHT22;1975;49.356;6.816;2023-04-03T11:06:22;8.00;99.90
3921;DHT22;1975;49.356;6.816;2023-04-03T11:08:50;8.20;99.90
3921;DHT22;1975;49.356;6.816;2023-04-03T11:11:17;8.00;99.90
3921;DHT22;1975;49.356;6.816;2023-04-03T11:13:48;7.80;99.90
3921;DHT22;1975;49.356;6.816;2023-04-03T11:16:16;7.60;99.90
3921;DHT22;1975;49.356;6.816;2023-04-03T11:18:45;7.40;99.90
3921;DHT22;1975;49.356;6.816;2023-04-03T11:23:39;7.30;99.90
3921;DHT22;1975;49.356;6.816;2023-04-03T11:26:10;7.30;99.90
3921;DHT22;1975;49.356;6.816;2023-04-03T11:28:36;7.30;99.90
3921;DHT22;1975;49.356;6.816;2023-04-03T11:33:58;7.40;99.90
3921;DHT22;1975;49.356;6.816;2023-04-03T11:36:30;7.40;99.90
3921;DHT22;1975;49.356;6.816;2023-04-03T11:38:59;7.30;99.90
3921;DHT22;1975;49.356;6.816;2023-04-03T11:41:29;7.30;99.90
3921;DHT22;1975;49.356;6.816;2023-04-03T11:43:56;7.20;99.90
3921;DHT22;1975;49.356;6.816;2023-04-03T11:46:22;7.30;99.90
3921;DHT22;1975;49.356;6.816;2023-04-03T11:49:19;7.30;99.90
3921;DHT22;1975;49.356;6.816;2023-04-03T11:51:53;7.40;99.90
3921;DHT22;1975;49.356;6.816;2023-04-03T11:57:22;7.40;99.90
3921;DHT22;1975;49.356;6.816;2023-04-03T11:59:47;7.30;99.90
3921;DHT22;1975;49.356;6.816;2023-04-03T12:02:34;7.50;99.90
3921;DHT22;1975;49.356;6.816;2023-04-03T12:08:15;7.40;99.90
3921;DHT22;1975;49.356;6.816;2023-04-03T12:10:41;7.30;99.90
3921;DHT22;1975;49.356;6.816;2023-04-03T12:13:12;7.50;99.90
3921;DHT22;1975;49.356;6.816;2023-04-03T12:23:30;7.50;99.90
3921;DHT22;1975;49.356;6.816;2023-04-03T12:26:01;7.50;99.90
3921;DHT22;1975;49.356;6.816;2023-04-03T12:28:29;7.60;99.90
3921;DHT22;1975;49.356;6.816;2023-04-03T12:30:54;7.70;99.90
3921;DHT22;1975;49.356;6.816;2023-04-03T12:33:27;7.70;99.90
3921;DHT22;1975;49.356;6.816;2023-04-03T12:36:08;7.70;99.90
3921;DHT22;1975;49.356;6.816;2023-04-03T12:39:09;7.70;99.90
3921;DHT22;1975;49.356;6.816;2023-04-03T12:46:38;8.20;99.90
3921;DHT22;1975;49.356;6.816;2023-04-03T12:49:12;8.10;99.90
3921;DHT22;1975;49.356;6.816;2023-04-03T12:51:43;8.00;99.90
3921;DHT22;1975;49.356;6.816;2023-04-03T12:54:13;8.00;99.90
3921;DHT22;1975;49.356;6.816;2023-04-03T12:56:39;7.90;99.90
3921;DHT22;1975;49.356;6.816;2023-04-03T12:59:25;7.70;99.90
3921;DHT22;1975;49.356;6.816;2023-04-03T13:01:58;7.60;99.90
3921;DHT22;1975;49.356;6.816;2023-04-03T13:04:24;7.60;99.90
3921;DHT22;1975;49.356;6.816;2023-04-03T13:06:50;7.60;99.90
3921;DHT22;1975;49.356;6.816;2023-04-03T13:11:44;7.70;99.90
3921;DHT22;1975;49.356;6.816;2023-04-03T13:14:17;7.70;99.90
3921;DHT22;1975;49.356;6.816;2023-04-03T13:16:52;7.70;99.90
3921;DHT22;1975;49.356;6.816;2023-04-03T13:19:18;7.70;99.90
3921;DHT22;1975;49.356;6.816;2023-04-03T13:21:43;7.90;99.90
3921;DHT22;1975;49.356;6.816;2023-04-03T13:24:09;7.90;99.90
3921;DHT22;1975;49.356;6.816;2023-04-03T13:26:35;7.90;99.90
3921;DHT22;1975;49.356;6.816;2023-04-03T13:29:05;7.90;99.90
3921;DHT22;1975;49.356;6.816;2023-04-03T13:31:33;7.80;99.90
3921;DHT22;1975;49.356;6.816;2023-04-03T13:34:17;7.90;99.90
3921;DHT22;1975;49.356;6.816;2023-04-03T13:36:44;8.00;99.90
3921;DHT22;1975;49.356;6.816;2023-04-03T13:41:37;8.00;99.90
3921;DHT22;1975;49.356;6.816;2023-04-03T13:46:53;7.90;99.90
3921;DHT22;1975;49.356;6.816;2023-04-03T13:51:55;8.00;99.90
3921;DHT22;1975;49.356;6.816;2023-04-03T13:54:22;7.90;99.90
3921;DHT22;1975;49.356;6.816;2023-04-03T13:56:52;8.00;99.90
3921;DHT22;1975;49.356;6.816;2023-04-03T14:01:45;8.20;99.90
3921;DHT22;1975;49.356;6.816;2023-04-03T14:04:18;8.30;99.90
3921;DHT22;1975;49.356;6.816;2023-04-03T14:06:44;8.40;99.90
3921;DHT22;1975;49.356;6.816;2023-04-03T14:09:09;8.40;99.90
3921;DHT22;1975;49.356;6.816;2023-04-03T14:11:35;8.40;99.90
3921;DHT22;1975;49.356;6.816;2023-04-03T14:14:02;8.20;99.90
3921;DHT22;1975;49.356;6.816;2023-04-03T14:16:31;8.20;99.90
3921;DHT22;1975;49.356;6.816;2023-04-03T14:18:57;8.50;99.90
3921;DHT22;1975;49.356;6.816;2023-04-03T14:21:23;8.40;99.90
3921;DHT22;1975;49.356;6.816;2023-04-03T14:23:49;8.30;99.90
3921;DHT22;1975;49.356;6.816;2023-04-03T14:26:19;8.20;99.90
3921;DHT22;1975;49.356;6.816;2023-04-03T14:28:46;8.20;99.90
3921;DHT22;1975;49.356;6.816;2023-04-03T14:31:12;8.10;99.90
3921;DHT22;1975;49.356;6.816;2023-04-03T14:33:38;8.10;99.90
3921;DHT22;1975;49.356;6.816;2023-04-03T14:36:13;8.10;99.90
3921;DHT22;1975;49.356;6.816;2023-04-03T14:38:39;8.00;99.90
3921;DHT22;1975;49.356;6.816;2023-04-03T14:41:05;8.00;99.90
3921;DHT22;1975;49.356;6.816;2023-04-03T14:43:30;8.00;99.90
3921;DHT22;1975;49.356;6.816;2023-04-03T14:45:56;8.00;99.90
3921;DHT22;1975;49.356;6.816;2023-04-03T14:48:23;8.00;99.90
3921;DHT22;1975;49.356;6.816;2023-04-03T14:50:49;8.00;99.90
3921;DHT22;1975;49.356;6.816;2023-04-03T14:53:15;8.00;99.90
3921;DHT22;1975;49.356;6.816;2023-04-03T14:55:41;8.00;99.90
3921;DHT22;1975;49.356;6.816;2023-04-03T14:58:09;8.00;99.90
3921;DHT22;1975;49.356;6.816;2023-04-03T15:00:37;8.10;99.90
3921;DHT22;1975;49.356;6.816;2023-04-03T15:03:02;8.00;99.90
3921;DHT22;1975;49.356;6.816;2023-04-03T15:05:28;8.10;99.90
3921;DHT22;1975;49.356;6.816;2023-04-03T15:07:54;8.10;99.90
3921;DHT22;1975;49.356;6.816;2023-04-03T15:10:21;8.10;99.90
3921;DHT22;1975;49.356;6.816;2023-04-03T15:12:47;8.10;99.90
3921;DHT22;1975;49.356;6.816;2023-04-03T15:15:13;8.10;99.90
3921;DHT22;1975;49.356;6.816;2023-04-03T15:17:39;8.00;99.90
3921;DHT22;1975;49.356;6.816;2023-04-03T15:20:12;8.10;99.90
3921;DHT22;1975;49.356;6.816;2023-04-03T15:22:38;8.10;99.90
3921;DHT22;1975;49.356;6.816;2023-04-03T15:25:04;8.10;99.90
3921;DHT22;1975;49.356;6.816;2023-04-03T15:27:30;8.10;99.90
3921;DHT22;1975;49.356;6.816;2023-04-03T15:29:55;8.10;99.90
3921;DHT22;1975;49.356;6.816;2023-04-03T15:32:21;8.10;99.90
3921;DHT22;1975;49.356;6.816;2023-04-03T15:34:46;8.10;99.90
3921;DHT22;1975;49.356;6.816;2023-04-03T15:37:12;8.10;99.90
3921;DHT22;1975;49.356;6.816;2023-04-03T15:39:37;8.10;99.90
3921;DHT22;1975;49.356;6.816;2023-04-03T15:42:03;8.20;99.90
3921;DHT22;1975;49.356;6.816;2023-04-03T15:44:32;8.20;99.90
3921;DHT22;1975;49.356;6.816;2023-04-03T15:46:58;8.10;99.90
3921;DHT22;1975;49.356;6.816;2023-04-03T15:49:24;8.10;99.90
3921;DHT22;1975;49.356;6.816;2023-04-03T15:51:51;8.20;99.90
3921;DHT22;1975;49.356;6.816;2023-04-03T15:54:16;8.20;99.90
3921;DHT22;1975;49.356;6.816;2023-04-03T15:56:42;8.20;99.90
3921;DHT22;1975;49.356;6.816;2023-04-03T15:59:08;8.20;99.90
3921;DHT22;1975;49.356;6.816;2023-04-03T16:01:33;8.20;99.90
3921;DHT22;1975;49.356;6.816;2023-04-03T16:03:59;8.30;99.90
3921;DHT22;1975;49.356;6.816;2023-04-03T16:06:24;8.30;99.90
3921;DHT22;1975;49.356;6.816;2023-04-03T16:08:50;8.30;99.90
3921;DHT22;1975;49.356;6.816;2023-04-03T16:11:16;8.30;99.90
3921;DHT22;1975;49.356;6.816;2023-04-03T16:13:41;8.20;99.90
3921;DHT22;1975;49.356;6.816;2023-04-03T16:16:07;8.20;99.90
3921;DHT22;1975;49.356;6.816;2023-04-03T16:18:33;8.30;99.90
3921;DHT22;1975;49.356;6.816;2023-04-03T16:20:59;8.30;99.90
3921;DHT22;1975;49.356;6.816;2023-04-03T16:23:25;8.30;99.90
3921;DHT22;1975;49.356;6.816;2023-04-03T16:25:50;8.30;99.90
3921;DHT22;1975;49.356;6.816;2023-04-03T16:28:16;8.30;99.90
3921;DHT22;1975;49.356;6.816;2023-04-03T16:30:43;8.30;99.90
3921;DHT22;1975;49.356;6.816;2023-04-03T16:33:09;8.30;99.90
3921;DHT22;1975;49.356;6.816;2023-04-03T16:35:35;8.30;99.90
3921;DHT22;1975;49.356;6.816;2023-04-03T16:38:00;8.30;99.90
3921;DHT22;1975;49.356;6.816;2023-04-03T16:40:26;8.30;99.90
3921;DHT22;1975;49.356;6.816;2023-04-03T16:42:51;8.30;99.90
3921;DHT22;1975;49.356;6.816;2023-04-03T16:45:17;8.30;99.90
3921;DHT22;1975;49.356;6.816;2023-04-03T16:47:42;8.30;99.90
3921;DHT22;1975;49.356;6.816;2023-04-03T16:50:08;8.30;99.90
3921;DHT22;1975;49.356;6.816;2023-04-03T16:52:33;8.30;99.90
3921;DHT22;1975;49.356;6.816;2023-04-03T16:54:59;8.30;99.90
3921;DHT22;1975;49.356;6.816;2023-04-03T16:57:24;8.30;99.90
3921;DHT22;1975;49.356;6.816;2023-04-03T16:59:50;8.30;99.90
3921;DHT22;1975;49.356;6.816;2023-04-03T17:02:16;8.30;99.90
3921;DHT22;1975;49.356;6.816;2023-04-03T17:04:42;8.30;99.90
3921;DHT22;1975;49.356;6.816;2023-04-03T17:07:07;8.30;99.90
3921;DHT22;1975;49.356;6.816;2023-04-03T17:09:33;8.30;99.90
3921;DHT22;1975;49.356;6.816;2023-04-03T17:11:59;8.30;99.90
3921;DHT22;1975;49.356;6.816;2023-04-03T17:14:24;8.20;99.90
3921;DHT22;1975;49.356;6.816;2023-04-03T17:16:50;8.20;99.90
3921;DHT22;1975;49.356;6.816;2023-04-03T17:19:16;8.20;99.90
3921;DHT22;1975;49.356;6.816;2023-04-03T17:21:42;8.20;99.90
3921;DHT22;1975;49.356;6.816;2023-04-03T17:24:08;8.20;99.90
3921;DHT22;1975;49.356;6.816;2023-04-03T17:26:38;8.20;99.90